createdAt,value
2022-09-24T00:00:34.402Z,26.07
2022-09-24T00:03:02.058Z,26.08
2022-09-24T00:05:29.592Z,26.08
2022-09-24T00:07:56.633Z,26.08
2022-09-24T00:10:23.600Z,26.08
2022-09-24T00:12:52.748Z,26.08
2022-09-24T00:15:20.123Z,26.09
2022-09-24T00:17:48.568Z,26.08
2022-09-24T00:20:16.759Z,26.08
2022-09-24T00:22:45.542Z,26.07
2022-09-24T00:25:31.414Z,26.07
2022-09-24T00:27:59.919Z,26.06
2022-09-24T00:30:26.965Z,26.05
2022-09-24T00:32:54.334Z,26.05
2022-09-24T00:35:21.671Z,26.04
2022-09-24T00:37:59.188Z,26.03
2022-09-24T00:40:45.634Z,26.02
2022-09-24T00:43:51.160Z,26.02
2022-09-24T00:46:54.143Z,26.01
2022-09-24T00:49:25.535Z,26.01
2022-09-24T00:51:54.058Z,26.01
2022-09-24T00:54:28.692Z,26.00
2022-09-24T00:57:02.076Z,26.00
2022-09-24T00:59:39.431Z,25.99
2022-09-24T01:02:12.280Z,25.99
2022-09-24T01:07:30.095Z,25.98
2022-09-24T01:10:00.197Z,25.98
2022-09-24T01:12:55.895Z,25.98
2022-09-24T01:15:34.386Z,25.97
2022-09-24T01:18:18.346Z,25.98
2022-09-24T01:20:54.777Z,25.97
2022-09-24T01:24:11.771Z,25.97
2022-09-24T01:27:16.694Z,25.96
2022-09-24T01:30:00.424Z,25.97
2022-09-24T01:32:56.292Z,25.96
2022-09-24T01:35:35.401Z,25.96
2022-09-24T01:38:15.767Z,25.96
2022-09-24T01:40:47.882Z,25.96
2022-09-24T01:46:07.615Z,25.96
2022-09-24T01:48:40.115Z,25.95
2022-09-24T01:51:36.430Z,25.95
2022-09-24T01:54:12.620Z,25.96
2022-09-24T01:57:07.413Z,25.95
2022-09-24T01:59:51.341Z,25.95
2022-09-24T02:02:23.242Z,25.95
2022-09-24T02:05:00.533Z,25.95
2022-09-24T02:07:42.077Z,25.96
2022-09-24T02:10:17.557Z,25.95
2022-09-24T02:12:51.732Z,25.96
2022-09-24T02:15:32.092Z,25.96
2022-09-24T02:18:16.457Z,25.96
2022-09-24T02:20:45.040Z,25.97
2022-09-24T02:23:16.126Z,25.97
2022-09-24T02:25:58.601Z,25.98
2022-09-24T02:28:27.188Z,25.99
2022-09-24T02:31:22.747Z,25.98
2022-09-24T02:34:16.912Z,25.97
2022-09-24T02:37:11.546Z,25.97
2022-09-24T02:39:46.244Z,25.96
2022-09-24T02:42:18.699Z,25.96
2022-09-24T02:44:57.503Z,25.95
2022-09-24T02:47:30.670Z,25.96
2022-09-24T02:49:57.732Z,25.95
2022-09-24T02:52:28.962Z,25.95
2022-09-24T02:54:56.931Z,25.94
2022-09-24T02:57:34.748Z,25.93
2022-09-24T03:00:07.223Z,25.93
2022-09-24T03:02:34.349Z,25.93
2022-09-24T03:05:01.528Z,25.93
2022-09-24T03:07:31.293Z,25.92
2022-09-24T03:10:02.813Z,25.91
2022-09-24T03:12:40.568Z,25.91
2022-09-24T03:15:08.221Z,25.92
2022-09-24T03:17:35.511Z,25.92
2022-09-24T03:20:03.068Z,25.91
2022-09-24T03:22:30.226Z,25.91
2022-09-24T03:25:02.803Z,25.91
2022-09-24T03:27:30.716Z,25.91
2022-09-24T03:30:16.676Z,25.90
2022-09-24T03:32:53.032Z,25.89
2022-09-24T03:35:21.705Z,25.89
2022-09-24T03:37:54.595Z,25.89
2022-09-24T03:40:22.300Z,25.89
2022-09-24T03:42:54.374Z,25.89
2022-09-24T03:45:39.154Z,25.89
2022-09-24T03:48:09.715Z,25.89
2022-09-24T03:50:37.264Z,25.88
2022-09-24T03:53:05.204Z,25.89
2022-09-24T03:55:35.335Z,25.89
2022-09-24T03:58:03.389Z,25.90
2022-09-24T04:00:30.495Z,25.90
2022-09-24T04:03:00.727Z,25.91
2022-09-24T04:05:32.391Z,25.92
2022-09-24T04:08:08.522Z,25.93
2022-09-24T04:10:36.140Z,25.95
2022-09-24T04:13:06.816Z,25.95
2022-09-24T04:15:45.067Z,25.96
2022-09-24T04:18:14.561Z,25.96
2022-09-24T04:20:48.170Z,25.96
2022-09-24T04:23:18.931Z,25.96
2022-09-24T04:25:51.717Z,25.97
2022-09-24T04:28:19.111Z,25.97
2022-09-24T04:30:46.031Z,25.98
2022-09-24T04:33:17.588Z,25.99
2022-09-24T04:35:46.513Z,25.99
2022-09-24T04:38:15.466Z,26.00
2022-09-24T04:40:44.095Z,26.00
2022-09-24T04:43:21.974Z,26.01
2022-09-24T04:45:49.240Z,26.00
2022-09-24T04:48:23.454Z,26.01
2022-09-24T04:51:08.739Z,26.01
2022-09-24T04:53:58.663Z,26.01
2022-09-24T04:56:27.851Z,26.01
2022-09-24T04:58:58.131Z,26.01
2022-09-24T05:01:26.093Z,26.00
2022-09-24T05:04:04.412Z,26.00
2022-09-24T05:06:33.326Z,26.00
2022-09-24T05:09:02.599Z,26.00
2022-09-24T05:11:30.596Z,26.00
2022-09-24T05:13:57.944Z,26.00
2022-09-24T05:16:32.005Z,25.99
2022-09-24T05:19:00.385Z,26.00
2022-09-24T05:21:34.535Z,26.00
2022-09-24T05:24:01.627Z,26.00
2022-09-24T05:26:47.274Z,26.01
2022-09-24T05:29:14.447Z,26.01
2022-09-24T05:31:42.987Z,26.01
2022-09-24T05:34:12.309Z,26.01
2022-09-24T05:36:39.447Z,26.00
2022-09-24T05:39:08.561Z,26.00
2022-09-24T05:41:35.596Z,25.98
2022-09-24T05:44:02.842Z,25.98
2022-09-24T05:46:29.826Z,25.98
2022-09-24T05:48:56.944Z,25.97
2022-09-24T05:51:23.977Z,25.98
2022-09-24T05:53:50.916Z,25.97
2022-09-24T05:56:18.294Z,25.96
2022-09-24T05:58:45.152Z,25.96
2022-09-24T06:01:12.075Z,25.96
2022-09-24T06:03:39.000Z,25.96
2022-09-24T06:06:06.682Z,25.94
2022-09-24T06:08:33.638Z,25.94
2022-09-24T06:11:02.768Z,25.94
2022-09-24T06:13:30.181Z,25.94
2022-09-24T06:16:10.920Z,25.95
2022-09-24T06:18:40.239Z,25.95
2022-09-24T06:21:11.162Z,25.96
2022-09-24T06:23:39.343Z,25.96
2022-09-24T06:26:08.065Z,25.97
2022-09-24T06:28:35.487Z,25.96
2022-09-24T06:31:02.994Z,25.97
2022-09-24T06:33:30.727Z,25.98
2022-09-24T06:36:02.915Z,25.98
2022-09-24T06:38:30.567Z,25.99
2022-09-24T06:41:02.599Z,25.99
2022-09-24T06:43:30.238Z,26.00
2022-09-24T06:45:58.436Z,26.00
2022-09-24T06:48:26.704Z,25.99
2022-09-24T06:50:54.875Z,25.99
2022-09-24T06:53:21.807Z,25.99
2022-09-24T06:55:49.231Z,25.99
2022-09-24T06:58:23.856Z,25.99
2022-09-24T07:00:54.750Z,26.00
2022-09-24T07:03:22.536Z,26.01
2022-09-24T07:05:49.739Z,26.00
2022-09-24T07:08:17.717Z,26.00
2022-09-24T07:10:46.239Z,26.00
2022-09-24T07:13:14.362Z,26.00
2022-09-24T07:15:42.691Z,26.00
2022-09-24T07:18:09.989Z,26.00
2022-09-24T07:20:37.147Z,26.00
2022-09-24T07:23:08.978Z,26.01
2022-09-24T07:25:37.965Z,26.01
2022-09-24T07:28:07.742Z,26.01
2022-09-24T07:30:35.964Z,26.01
2022-09-24T07:33:03.429Z,26.01
2022-09-24T07:35:31.483Z,26.02
2022-09-24T07:38:03.988Z,26.03
2022-09-24T07:40:32.243Z,26.04
2022-09-24T07:43:00.798Z,26.04
2022-09-24T07:45:29.937Z,26.03
2022-09-24T07:48:06.250Z,26.03
2022-09-24T07:50:39.213Z,26.04
2022-09-24T07:53:06.695Z,26.03
2022-09-24T07:55:39.578Z,26.03
2022-09-24T07:58:09.224Z,26.03
2022-09-24T08:00:36.686Z,26.04
2022-09-24T08:03:05.172Z,26.04
2022-09-24T08:05:33.382Z,26.04
2022-09-24T08:08:00.396Z,26.04
2022-09-24T08:10:28.508Z,26.04
2022-09-24T08:12:58.619Z,26.05
2022-09-24T08:15:26.134Z,26.05
2022-09-24T08:17:53.281Z,26.05
2022-09-24T08:20:23.177Z,26.05
2022-09-24T08:22:50.157Z,26.06
2022-09-24T08:25:17.200Z,26.07
2022-09-24T08:27:44.242Z,26.08
2022-09-24T08:30:11.957Z,26.07
2022-09-24T08:32:38.922Z,26.08
2022-09-24T08:35:08.408Z,26.07
2022-09-24T08:37:35.439Z,26.07
2022-09-24T08:40:03.809Z,26.07
2022-09-24T08:42:34.409Z,26.08
2022-09-24T08:45:21.190Z,26.08
2022-09-24T08:47:57.504Z,26.07
2022-09-24T08:50:34.467Z,26.06
2022-09-24T08:53:07.363Z,26.06
2022-09-24T08:55:42.481Z,26.06
2022-09-24T08:58:44.177Z,26.06
2022-09-24T09:01:11.650Z,26.06
2022-09-24T09:03:57.265Z,26.06
2022-09-24T09:06:59.013Z,26.05
2022-09-24T09:09:46.819Z,26.06
2022-09-24T09:12:35.814Z,26.05
2022-09-24T09:15:13.438Z,26.04
2022-09-24T09:17:47.726Z,26.04
2022-09-24T09:20:21.551Z,26.03
2022-09-24T09:22:51.212Z,26.03
2022-09-24T09:25:24.848Z,26.03
2022-09-24T09:28:15.512Z,26.03
2022-09-24T09:31:07.180Z,26.03
2022-09-24T09:33:49.327Z,26.04
2022-09-24T09:36:38.518Z,26.05
2022-09-24T09:39:23.757Z,26.06
2022-09-24T09:41:50.743Z,26.04
2022-09-24T09:44:23.906Z,26.03
2022-09-24T09:47:01.402Z,26.02
2022-09-24T09:49:34.949Z,26.02
2022-09-24T09:52:13.461Z,26.02
2022-09-24T09:54:42.138Z,26.02
2022-09-24T09:57:16.485Z,26.02
2022-09-24T09:59:47.183Z,26.03
2022-09-24T10:02:35.556Z,26.03
2022-09-24T10:05:05.699Z,26.04
2022-09-24T10:07:32.967Z,26.03
2022-09-24T10:10:13.930Z,26.04
2022-09-24T10:12:40.887Z,26.05
2022-09-24T10:15:20.197Z,26.06
2022-09-24T10:17:51.268Z,26.05
2022-09-24T10:20:32.852Z,26.04
2022-09-24T10:23:07.754Z,26.04
2022-09-24T10:25:38.133Z,26.04
2022-09-24T10:28:28.241Z,26.04
2022-09-24T10:30:57.038Z,26.03
2022-09-24T10:33:24.698Z,26.02
2022-09-24T10:35:51.710Z,26.00
2022-09-24T10:38:22.054Z,26.01
2022-09-24T10:40:49.064Z,26.01
2022-09-24T10:43:19.315Z,26.00
2022-09-24T10:46:20.035Z,26.01
2022-09-24T10:49:11.582Z,26.01
2022-09-24T10:52:04.521Z,26.01
2022-09-24T10:55:22.238Z,26.02
2022-09-24T10:57:49.597Z,26.02
2022-09-24T11:00:23.372Z,26.02
2022-09-24T11:03:24.647Z,26.02
2022-09-24T11:06:02.969Z,26.02
2022-09-24T11:08:48.006Z,26.02
2022-09-24T11:11:28.822Z,26.03
2022-09-24T11:14:15.309Z,26.02
2022-09-24T11:16:51.965Z,26.02
2022-09-24T11:19:21.467Z,26.02
2022-09-24T11:21:48.325Z,26.03
2022-09-24T11:24:21.077Z,26.03
2022-09-24T11:27:03.218Z,26.03
2022-09-24T11:29:56.357Z,26.03
2022-09-24T11:32:44.940Z,26.02
2022-09-24T11:35:29.016Z,26.02
2022-09-24T11:38:05.135Z,26.01
2022-09-24T11:40:54.377Z,26.01
2022-09-24T11:43:34.040Z,26.01
2022-09-24T11:46:40.063Z,26.01
2022-09-24T11:49:16.677Z,26.02
2022-09-24T11:52:09.956Z,26.02
2022-09-24T11:54:40.644Z,26.02
2022-09-24T11:57:16.750Z,26.03
2022-09-24T11:59:54.069Z,26.03
2022-09-24T12:02:26.837Z,26.02
2022-09-24T12:05:14.248Z,26.02
2022-09-24T12:08:04.449Z,26.03
2022-09-24T12:10:39.999Z,26.02
2022-09-24T12:13:21.398Z,26.03
2022-09-24T12:16:23.522Z,26.03
2022-09-24T12:19:24.161Z,26.03
2022-09-24T12:21:53.394Z,26.03
2022-09-24T12:24:33.210Z,26.05
2022-09-24T12:27:04.415Z,26.07
2022-09-24T12:30:19.799Z,26.09
2022-09-24T12:32:59.335Z,26.10
2022-09-24T12:35:45.293Z,26.11
2022-09-24T12:38:20.348Z,26.13
2022-09-24T12:41:25.419Z,26.14
2022-09-24T12:43:55.850Z,26.15
2022-09-24T12:46:45.259Z,26.15
2022-09-24T12:49:27.677Z,26.16
2022-09-24T12:52:37.015Z,26.16
2022-09-24T12:55:05.322Z,26.16
2022-09-24T12:57:42.920Z,26.16
2022-09-24T13:00:37.569Z,26.17
2022-09-24T13:03:06.628Z,26.16
2022-09-24T13:05:40.800Z,26.16
2022-09-24T13:08:07.873Z,26.16
2022-09-24T13:10:36.744Z,26.15
2022-09-24T13:13:21.781Z,26.15
2022-09-24T13:16:00.155Z,26.16
2022-09-24T13:18:27.820Z,26.17
2022-09-24T13:21:01.483Z,26.17
2022-09-24T13:23:29.616Z,26.16
2022-09-24T13:25:56.523Z,26.17
2022-09-24T13:28:35.238Z,26.17
2022-09-24T13:31:23.911Z,26.18
2022-09-24T13:33:58.613Z,26.17
2022-09-24T13:36:33.924Z,26.17
2022-09-24T13:39:19.640Z,26.16
2022-09-24T13:42:11.249Z,26.15
2022-09-24T13:44:46.084Z,26.16
2022-09-24T13:47:42.876Z,26.15
2022-09-24T13:50:17.597Z,26.14
2022-09-24T13:52:59.936Z,26.14
2022-09-24T13:55:39.732Z,26.14
2022-09-24T13:58:29.846Z,26.13
2022-09-24T14:01:00.604Z,26.12
2022-09-24T14:07:30.677Z,26.09
2022-09-24T14:10:14.528Z,26.09
2022-09-24T14:12:46.088Z,26.11
2022-09-24T14:15:18.202Z,26.13
2022-09-24T14:18:00.128Z,26.13
2022-09-24T14:20:37.744Z,26.14
2022-09-24T14:23:05.532Z,26.16
2022-09-24T14:25:35.800Z,26.16
2022-09-24T14:28:06.289Z,26.15
2022-09-24T14:30:36.975Z,26.13
2022-09-24T14:33:12.138Z,26.12
2022-09-24T14:35:40.389Z,26.10
2022-09-24T14:38:15.359Z,26.10
2022-09-24T14:40:45.725Z,26.10
2022-09-24T14:43:31.698Z,26.10
2022-09-24T14:46:19.871Z,26.08
2022-09-24T14:48:47.020Z,26.06
2022-09-24T14:51:34.074Z,26.07
2022-09-24T14:54:55.355Z,26.07
2022-09-24T14:57:25.554Z,26.07
2022-09-24T14:59:52.992Z,26.07
2022-09-24T15:02:29.490Z,26.06
2022-09-24T15:05:05.653Z,26.04
2022-09-24T15:07:34.626Z,26.04
2022-09-24T15:10:04.815Z,26.02
2022-09-24T15:12:35.599Z,26.02
2022-09-24T15:15:25.295Z,26.00
2022-09-24T15:17:52.327Z,26.00
2022-09-24T15:20:19.255Z,26.00
2022-09-24T15:22:47.525Z,26.00
2022-09-24T15:25:15.714Z,26.00
2022-09-24T15:27:43.276Z,26.00
2022-09-24T15:30:20.394Z,25.99
2022-09-24T15:32:50.126Z,26.00
2022-09-24T15:35:17.486Z,26.01
2022-09-24T15:37:45.266Z,26.00
2022-09-24T15:40:20.875Z,26.00
2022-09-24T15:42:47.859Z,26.02
2022-09-24T15:45:21.643Z,26.01
2022-09-24T15:47:49.743Z,26.01
2022-09-24T15:50:17.460Z,26.01
2022-09-24T15:52:59.211Z,26.01
2022-09-24T15:55:26.372Z,26.01
2022-09-24T15:57:54.375Z,26.02
2022-09-24T16:00:26.100Z,26.01
2022-09-24T16:02:58.952Z,26.01
2022-09-24T16:05:27.453Z,26.01
2022-09-24T16:07:55.623Z,26.01
2022-09-24T16:10:24.026Z,26.01
2022-09-24T16:12:52.137Z,26.01
2022-09-24T16:15:21.990Z,26.01
2022-09-24T16:17:51.018Z,26.00
2022-09-24T16:23:34.351Z,26.00
2022-09-24T16:26:09.125Z,25.99
2022-09-24T16:28:41.033Z,26.00
2022-09-24T16:31:12.079Z,26.00
2022-09-24T16:33:49.954Z,26.00
2022-09-24T16:36:52.945Z,26.00
2022-09-24T16:39:22.259Z,26.00
2022-09-24T16:41:52.352Z,26.00
2022-09-24T16:44:20.722Z,26.00
2022-09-24T16:46:51.730Z,26.00
2022-09-24T16:49:20.581Z,25.99
2022-09-24T16:51:49.692Z,25.99
2022-09-24T16:54:19.755Z,25.99
2022-09-24T16:57:28.805Z,25.99
2022-09-24T16:59:51.101Z,25.99
2022-09-24T17:02:19.406Z,26.00
2022-09-24T17:04:54.952Z,26.00
2022-09-24T17:07:41.141Z,26.01
2022-09-24T17:10:16.606Z,26.02
2022-09-24T17:12:50.631Z,26.02
2022-09-24T17:15:22.059Z,26.02
2022-09-24T17:17:51.688Z,26.02
2022-09-24T17:20:21.999Z,26.02
2022-09-24T17:23:14.011Z,26.02
2022-09-24T17:25:46.554Z,26.02
2022-09-24T17:34:11.648Z,26.02
2022-09-24T17:36:52.651Z,26.02
2022-09-24T17:39:26.057Z,26.01
2022-09-24T17:45:02.713Z,26.00
2022-09-24T17:47:56.322Z,26.00
2022-09-24T17:50:29.630Z,26.00
2022-09-24T17:53:00.801Z,26.00
2022-09-24T17:55:32.338Z,26.00
2022-09-24T17:58:02.733Z,25.99
2022-09-24T18:00:53.650Z,25.97
2022-09-24T18:06:32.911Z,25.97
2022-09-24T18:09:09.055Z,25.97
2022-09-24T18:11:47.219Z,25.98
2022-09-24T18:14:20.361Z,25.97
2022-09-24T18:16:52.098Z,25.97
2022-09-24T18:19:20.203Z,25.96
2022-09-24T18:21:54.009Z,25.95
2022-09-24T18:24:23.752Z,25.96
2022-09-24T18:26:53.152Z,25.95
2022-09-24T18:29:32.684Z,25.96
2022-09-24T18:32:42.509Z,25.94
2022-09-24T18:35:36.996Z,25.94
2022-09-24T18:38:11.164Z,25.94
2022-09-24T18:40:48.120Z,25.95
2022-09-24T18:43:26.845Z,25.96
2022-09-24T18:46:08.034Z,25.96
2022-09-24T18:48:41.145Z,25.96
2022-09-24T18:51:20.951Z,25.96
2022-09-24T18:54:04.672Z,25.96
2022-09-24T18:56:36.980Z,25.95
2022-09-24T19:02:24.960Z,25.93
2022-09-24T19:05:19.322Z,25.94
2022-09-24T19:08:04.826Z,25.96
2022-09-24T19:10:38.788Z,25.95
2022-09-24T19:13:11.567Z,25.96
2022-09-24T19:15:48.128Z,25.97
2022-09-24T19:18:42.679Z,25.96
2022-09-24T19:21:45.724Z,25.95
2022-09-24T19:24:27.387Z,25.95
2022-09-24T19:26:56.552Z,25.95
2022-09-24T19:32:10.768Z,25.94
2022-09-24T19:34:44.511Z,25.94
2022-09-24T19:37:42.910Z,25.94
2022-09-24T19:40:13.708Z,25.93
2022-09-24T19:43:11.874Z,25.93
2022-09-24T19:45:53.514Z,25.93
2022-09-24T19:48:25.138Z,25.93
2022-09-24T19:51:15.403Z,25.93
2022-09-24T19:54:06.772Z,25.94
2022-09-24T19:56:41.701Z,25.94
2022-09-24T19:59:21.793Z,25.94
2022-09-24T20:01:56.981Z,25.94
2022-09-24T20:04:37.271Z,25.94
2022-09-24T20:07:17.313Z,25.94
2022-09-24T20:10:50.871Z,25.94
2022-09-24T20:13:01.810Z,25.94
2022-09-24T20:15:36.335Z,25.94
2022-09-24T20:18:21.817Z,25.94
2022-09-24T20:24:24.065Z,25.95
2022-09-24T20:30:33.792Z,25.96
2022-09-24T20:33:04.659Z,25.96
2022-09-24T20:35:35.895Z,25.97
2022-09-24T20:41:32.526Z,25.97
2022-09-24T20:44:07.340Z,25.97
2022-09-24T20:46:36.325Z,25.96
2022-09-24T20:50:07.827Z,25.96
2022-09-24T20:53:12.280Z,25.94
2022-09-24T21:02:51.556Z,25.92
2022-09-24T21:05:46.143Z,25.91
2022-09-24T21:05:57.303Z,25.93
2022-09-24T21:08:19.899Z,25.90
2022-09-24T21:10:51.533Z,25.89
2022-09-24T21:13:24.964Z,25.88
2022-09-24T21:16:06.301Z,25.88
2022-09-24T21:18:48.414Z,25.87
2022-09-24T21:21:26.317Z,25.87
2022-09-24T21:24:13.504Z,25.87
2022-09-24T21:26:46.438Z,25.86
2022-09-24T21:29:20.385Z,25.85
2022-09-24T21:35:13.322Z,25.87
2022-09-24T21:37:52.186Z,25.86
2022-09-24T21:41:11.604Z,25.87
2022-09-24T21:44:14.228Z,25.87
2022-09-24T21:46:43.157Z,25.87
2022-09-24T21:49:15.829Z,25.88
2022-09-24T21:52:07.734Z,25.89
2022-09-24T21:54:40.933Z,25.90
2022-09-24T21:57:18.008Z,25.90
2022-09-24T22:08:14.263Z,25.89
2022-09-24T22:14:48.655Z,25.90
2022-09-24T22:17:22.402Z,25.91
2022-09-24T22:19:56.889Z,25.90
2022-09-24T22:22:46.502Z,25.89
2022-09-24T22:25:22.105Z,25.89
2022-09-24T22:31:10.911Z,25.88
2022-09-24T22:34:19.140Z,25.88
2022-09-24T22:37:38.560Z,25.88
2022-09-24T22:40:30.189Z,25.88
2022-09-24T22:43:01.761Z,25.88
2022-09-24T22:57:32.614Z,25.89
2022-09-24T23:02:54.195Z,25.89
2022-09-24T23:09:56.010Z,25.88
2022-09-24T23:12:26.771Z,25.87
2022-09-24T23:16:03.052Z,25.88
2022-09-24T23:21:55.221Z,25.87
2022-09-24T23:24:26.732Z,25.87
2022-09-24T23:26:54.566Z,25.88
2022-09-24T23:29:26.300Z,25.89
2022-09-24T23:35:45.272Z,25.89
2022-09-24T23:39:16.688Z,25.89
2022-09-24T23:41:51.454Z,25.88
2022-09-24T23:44:38.971Z,25.89
2022-09-24T23:47:17.399Z,25.88
2022-09-24T23:49:49.698Z,25.88
2022-09-24T23:52:25.171Z,25.88
2022-09-24T23:55:07.489Z,25.89
